createdAt,value
2018-12-13T00:01:41.357Z,13.95
2018-12-13T00:04:08.829Z,11.40
2018-12-13T00:06:36.251Z,12.95
2018-12-13T00:09:06.126Z,13.55
2018-12-13T00:11:33.541Z,14.40
2018-12-13T00:14:00.994Z,14.07
2018-12-13T00:16:28.429Z,12.33
2018-12-13T00:18:55.999Z,14.15
2018-12-13T00:21:23.443Z,14.45
2018-12-13T00:23:50.869Z,14.10
2018-12-13T00:26:18.294Z,13.35
2018-12-13T00:28:45.846Z,13.20
2018-12-13T00:31:13.267Z,16.07
2018-12-13T00:33:40.699Z,15.90
2018-12-13T00:36:08.137Z,16.45
2018-12-13T00:38:36.099Z,14.45
2018-12-13T00:41:03.539Z,14.53
2018-12-13T00:43:30.991Z,14.20
2018-12-13T00:45:58.410Z,12.88
2018-12-13T00:48:25.861Z,13.75
2018-12-13T00:50:53.282Z,13.88
2018-12-13T00:53:20.737Z,11.00
2018-12-13T00:55:48.204Z,14.43
2018-12-13T00:58:15.630Z,13.85
2018-12-13T01:00:43.076Z,13.35
2018-12-13T01:03:10.590Z,15.93
2018-12-13T01:05:38.002Z,14.63
2018-12-13T01:08:05.479Z,16.48
2018-12-13T01:10:32.950Z,14.35
2018-12-13T01:13:00.533Z,18.95
2018-12-13T01:15:29.940Z,15.60
2018-12-13T01:17:57.357Z,14.80
2018-12-13T01:20:24.814Z,16.20
2018-12-13T01:22:52.271Z,14.33
2018-12-13T01:25:19.781Z,15.88
2018-12-13T01:27:47.212Z,15.88
2018-12-13T01:30:14.757Z,16.50
2018-12-13T01:32:42.208Z,14.58
2018-12-13T01:35:09.673Z,15.15
2018-12-13T01:37:37.090Z,16.37
2018-12-13T01:40:04.570Z,18.07
2018-12-13T01:42:32.039Z,19.35
2018-12-13T01:44:59.469Z,17.37
2018-12-13T01:47:26.894Z,13.72
2018-12-13T01:49:54.326Z,17.90
2018-12-13T01:52:21.762Z,14.15
2018-12-13T01:54:49.181Z,19.50
2018-12-13T01:57:17.038Z,17.23
2018-12-13T01:59:44.471Z,16.82
2018-12-13T02:02:11.892Z,16.37
2018-12-13T02:04:39.330Z,17.30
2018-12-13T02:07:06.778Z,20.92
2018-12-13T02:09:34.210Z,17.62
2018-12-13T02:12:01.638Z,21.50
2018-12-13T02:14:29.094Z,17.85
2018-12-13T02:16:56.554Z,16.25
2018-12-13T02:19:24.022Z,19.95
2018-12-13T02:21:51.447Z,17.65
2018-12-13T02:24:18.917Z,14.93
2018-12-13T02:26:47.218Z,13.83
2018-12-13T02:29:14.763Z,17.42
2018-12-13T02:31:42.213Z,19.00
2018-12-13T02:34:09.675Z,14.85
2018-12-13T02:36:37.520Z,14.38
2018-12-13T02:39:05.966Z,13.72
2018-12-13T02:41:33.413Z,15.78
2018-12-13T02:44:00.861Z,15.40
2018-12-13T02:46:28.382Z,17.12
2018-12-13T02:49:05.763Z,17.75
2018-12-13T02:51:33.442Z,15.85
2018-12-13T02:54:00.906Z,16.35
2018-12-13T02:56:28.349Z,16.23
2018-12-13T02:58:55.812Z,17.12
2018-12-13T03:01:23.750Z,18.52
2018-12-13T03:03:51.405Z,17.70
2018-12-13T03:06:18.849Z,15.78
2018-12-13T03:08:46.270Z,14.65
2018-12-13T03:11:13.718Z,15.65
2018-12-13T03:13:41.146Z,15.63
2018-12-13T03:16:08.623Z,15.08
2018-12-13T03:18:36.039Z,13.72
2018-12-13T03:21:03.493Z,16.62
2018-12-13T03:23:30.994Z,16.45
2018-12-13T03:25:58.425Z,15.93
2018-12-13T03:28:26.554Z,16.30
2018-12-13T03:30:53.992Z,16.15
2018-12-13T03:33:21.423Z,15.55
2018-12-13T03:35:48.986Z,14.75
2018-12-13T03:38:16.743Z,16.30
2018-12-13T03:40:44.165Z,14.35
2018-12-13T03:43:11.590Z,16.40
2018-12-13T03:45:39.048Z,13.50
2018-12-13T03:48:06.590Z,17.70
2018-12-13T03:50:34.068Z,14.07
2018-12-13T03:53:01.511Z,18.55
2018-12-13T03:55:29.045Z,15.63
2018-12-13T03:57:57.071Z,12.95
2018-12-13T04:00:24.523Z,11.78
2018-12-13T04:02:52.021Z,11.90
2018-12-13T04:05:19.507Z,11.90
2018-12-13T04:07:46.929Z,10.40
2018-12-13T04:10:14.369Z,9.38
2018-12-13T04:12:41.815Z,11.03
2018-12-13T04:15:09.286Z,10.65
2018-12-13T04:17:36.710Z,7.30
2018-12-13T04:20:05.121Z,7.03
2018-12-13T04:22:32.620Z,6.60
2018-12-13T04:25:00.043Z,5.95
2018-12-13T04:27:27.464Z,7.15
2018-12-13T04:29:54.940Z,5.90
2018-12-13T04:32:22.386Z,5.80
2018-12-13T04:34:49.896Z,6.60
2018-12-13T04:37:17.325Z,5.67
2018-12-13T04:39:44.762Z,5.55
2018-12-13T04:42:12.214Z,6.83
2018-12-13T04:44:39.657Z,5.33
2018-12-13T04:47:07.106Z,7.35
2018-12-13T04:49:34.566Z,5.45
2018-12-13T04:52:02.024Z,7.30
2018-12-13T04:54:29.434Z,6.87
2018-12-13T04:56:56.864Z,6.58
2018-12-13T04:59:24.309Z,4.10
2018-12-13T05:01:51.764Z,6.00
2018-12-13T05:04:19.808Z,7.33
2018-12-13T05:06:47.936Z,6.53
2018-12-13T05:09:15.451Z,5.72
2018-12-13T05:11:42.877Z,6.67
2018-12-13T05:14:10.298Z,5.72
2018-12-13T05:16:38.213Z,6.05
2018-12-13T05:19:05.646Z,7.37
2018-12-13T05:21:33.175Z,7.40
2018-12-13T05:24:00.620Z,7.25
2018-12-13T05:26:28.067Z,6.80
2018-12-13T05:28:55.487Z,6.17
2018-12-13T05:31:22.909Z,6.20
2018-12-13T05:33:50.347Z,7.35
2018-12-13T05:36:17.791Z,6.92
2018-12-13T05:38:45.230Z,8.25
2018-12-13T05:41:12.654Z,6.47
2018-12-13T05:43:40.534Z,8.63
2018-12-13T05:46:07.977Z,10.82
2018-12-13T05:48:35.418Z,8.33
2018-12-13T05:51:02.871Z,6.40
2018-12-13T05:53:30.319Z,6.67
2018-12-13T05:55:57.737Z,6.58
2018-12-13T05:58:25.197Z,8.98
2018-12-13T06:00:52.676Z,8.03
2018-12-13T06:03:20.114Z,8.80
2018-12-13T06:05:47.530Z,9.60
2018-12-13T06:08:14.978Z,9.00
2018-12-13T06:10:42.738Z,8.00
2018-12-13T06:13:10.750Z,9.08
2018-12-13T06:15:38.198Z,10.63
2018-12-13T06:18:06.952Z,19.95
2018-12-13T06:20:34.717Z,9.83
2018-12-13T06:23:02.147Z,8.75
2018-12-13T06:25:29.571Z,7.95
2018-12-13T06:27:57.107Z,10.13
2018-12-13T06:30:24.655Z,10.90
2018-12-13T06:32:52.168Z,9.70
2018-12-13T06:35:19.583Z,12.40
2018-12-13T06:37:47.357Z,13.25
2018-12-13T06:40:15.630Z,10.45
2018-12-13T06:42:43.195Z,9.08
2018-12-13T06:45:10.642Z,6.70
2018-12-13T06:47:38.106Z,8.40
2018-12-13T06:50:06.070Z,11.40
2018-12-13T06:52:33.515Z,9.50
2018-12-13T06:55:00.940Z,8.98
2018-12-13T06:57:28.429Z,7.50
2018-12-13T06:59:56.062Z,9.08
2018-12-13T07:02:23.983Z,7.65
2018-12-13T07:04:51.397Z,7.78
2018-12-13T07:07:19.418Z,7.15
2018-12-13T07:09:46.842Z,7.75
2018-12-13T07:12:14.291Z,8.88
2018-12-13T07:14:41.716Z,8.35
2018-12-13T07:17:09.141Z,9.80
2018-12-13T07:19:36.579Z,7.40
2018-12-13T07:22:04.006Z,8.23
2018-12-13T07:24:31.906Z,9.00
2018-12-13T07:26:59.349Z,8.93
2018-12-13T07:29:26.794Z,7.53
2018-12-13T07:31:54.321Z,7.90
2018-12-13T07:34:21.766Z,9.23
2018-12-13T07:36:49.295Z,8.60
2018-12-13T07:39:16.715Z,8.70
2018-12-13T07:41:44.247Z,7.33
2018-12-13T07:44:11.667Z,8.35
2018-12-13T07:46:39.599Z,9.85
2018-12-13T07:49:07.022Z,10.78
2018-12-13T07:51:34.485Z,8.95
2018-12-13T07:54:01.938Z,13.35
2018-12-13T07:56:29.662Z,9.05
2018-12-13T07:58:57.151Z,9.45
2018-12-13T08:01:24.599Z,8.63
2018-12-13T08:03:52.134Z,9.15
2018-12-13T08:06:19.551Z,10.30
2018-12-13T08:08:46.982Z,10.85
2018-12-13T08:11:14.506Z,6.95
2018-12-13T08:13:41.952Z,7.95
2018-12-13T08:16:09.391Z,8.55
2018-12-13T08:18:36.814Z,8.88
2018-12-13T08:21:04.278Z,11.55
2018-12-13T08:23:31.702Z,8.30
2018-12-13T08:25:59.179Z,13.45
2018-12-13T08:28:26.608Z,10.70
2018-12-13T08:30:54.102Z,7.72
2018-12-13T08:33:21.575Z,8.40
2018-12-13T08:35:49.021Z,10.98
2018-12-13T08:38:16.446Z,7.53
2018-12-13T08:40:43.866Z,8.38
2018-12-13T08:43:11.298Z,9.03
2018-12-13T08:45:38.734Z,10.93
2018-12-13T08:48:06.203Z,7.55
2018-12-13T08:50:33.623Z,8.25
2018-12-13T08:53:01.075Z,7.80
2018-12-13T08:55:28.509Z,9.15
2018-12-13T08:57:55.955Z,7.78
2018-12-13T09:00:23.410Z,9.20
2018-12-13T09:02:50.910Z,7.80
2018-12-13T09:05:18.354Z,11.95
2018-12-13T09:07:45.785Z,12.07
2018-12-13T09:10:13.212Z,7.42
2018-12-13T09:12:40.719Z,8.33
2018-12-13T09:15:08.175Z,9.48
2018-12-13T09:17:35.604Z,8.25
2018-12-13T09:20:03.871Z,10.45
2018-12-13T09:22:31.298Z,6.85
2018-12-13T09:24:58.950Z,11.28
2018-12-13T09:27:26.402Z,7.12
2018-12-13T09:29:53.825Z,10.82
2018-12-13T09:32:21.255Z,8.70
2018-12-13T09:34:48.682Z,10.70
2018-12-13T09:37:16.118Z,7.12
2018-12-13T09:39:43.598Z,7.65
2018-12-13T09:42:11.158Z,7.75
2018-12-13T09:44:38.630Z,8.55
2018-12-13T09:47:06.071Z,5.67
2018-12-13T09:49:33.497Z,8.40
2018-12-13T09:52:00.915Z,8.53
2018-12-13T09:54:28.458Z,8.33
2018-12-13T09:56:55.886Z,7.92
2018-12-13T09:59:24.624Z,7.67
2018-12-13T10:01:52.522Z,9.30
2018-12-13T10:04:19.969Z,10.65
2018-12-13T10:06:47.402Z,9.65
2018-12-13T10:09:14.930Z,7.83
2018-12-13T10:11:42.351Z,7.20
2018-12-13T10:14:09.814Z,9.80
2018-12-13T10:16:37.258Z,7.35
2018-12-13T10:19:04.729Z,9.80
2018-12-13T10:21:32.142Z,10.43
2018-12-13T10:23:59.578Z,10.72
2018-12-13T10:26:26.994Z,8.25
2018-12-13T10:28:54.423Z,9.03
2018-12-13T10:31:21.932Z,10.58
2018-12-13T10:33:49.393Z,7.80
2018-12-13T10:36:16.830Z,8.90
2018-12-13T10:38:44.258Z,8.85
2018-12-13T10:41:11.697Z,9.08
2018-12-13T10:43:39.132Z,12.35
2018-12-13T10:46:06.606Z,7.62
2018-12-13T10:48:34.034Z,11.97
2018-12-13T10:51:01.487Z,10.50
2018-12-13T10:53:28.916Z,7.58
2018-12-13T10:55:56.349Z,9.38
2018-12-13T10:58:23.878Z,7.83
2018-12-13T11:00:57.079Z,10.38
2018-12-13T11:03:30.614Z,9.08
2018-12-13T11:05:58.163Z,8.35
2018-12-13T11:08:25.571Z,12.15
2018-12-13T11:10:53.686Z,11.20
2018-12-13T11:13:21.127Z,10.05
2018-12-13T11:15:48.593Z,13.35
2018-12-13T11:18:16.022Z,10.08
2018-12-13T11:20:43.511Z,10.13
2018-12-13T11:23:10.946Z,9.55
2018-12-13T11:25:38.416Z,9.45
2018-12-13T11:28:17.851Z,8.95
2018-12-13T11:30:45.327Z,8.73
2018-12-13T11:33:12.804Z,8.08
2018-12-13T11:35:40.278Z,9.90
2018-12-13T11:38:08.366Z,9.33
2018-12-13T11:40:35.835Z,10.13
2018-12-13T11:43:03.374Z,11.63
2018-12-13T11:45:31.617Z,8.85
2018-12-13T11:47:59.056Z,8.78
2018-12-13T11:50:26.503Z,10.55
2018-12-13T11:52:53.945Z,12.15
2018-12-13T11:55:30.006Z,13.55
2018-12-13T11:57:57.482Z,10.13
2018-12-13T12:00:24.919Z,9.20
2018-12-13T12:02:52.362Z,9.30
2018-12-13T12:05:19.834Z,8.10
2018-12-13T12:07:47.336Z,9.23
2018-12-13T12:10:14.811Z,10.55
2018-12-13T12:12:42.254Z,9.80
2018-12-13T12:15:09.934Z,12.82
2018-12-13T12:17:37.462Z,10.65
2018-12-13T12:20:06.155Z,10.65
2018-12-13T12:22:33.594Z,9.50
2018-12-13T12:25:01.054Z,11.20
2018-12-13T12:27:28.486Z,9.03
2018-12-13T12:29:55.955Z,8.05
2018-12-13T12:32:23.415Z,8.93
2018-12-13T12:34:50.861Z,8.13
2018-12-13T12:37:18.344Z,7.78
2018-12-13T12:39:45.843Z,7.12
2018-12-13T12:42:13.350Z,7.92
2018-12-13T12:44:41.231Z,7.42
2018-12-13T12:47:08.990Z,7.67
2018-12-13T12:49:36.446Z,9.70
2018-12-13T12:52:03.918Z,9.50
2018-12-13T12:54:31.378Z,8.25
2018-12-13T12:56:59.082Z,7.35
2018-12-13T12:59:26.528Z,6.22
2018-12-13T13:01:54.128Z,8.10
2018-12-13T13:04:21.625Z,7.75
2018-12-13T13:06:49.112Z,8.73
2018-12-13T13:09:16.570Z,6.83
2018-12-13T13:11:44.028Z,6.95
2018-12-13T13:14:12.202Z,8.65
2018-12-13T13:16:39.915Z,6.47
2018-12-13T13:19:07.338Z,12.20
2018-12-13T13:21:34.754Z,8.23
2018-12-13T13:24:02.174Z,7.90
2018-12-13T13:26:29.613Z,9.98
2018-12-13T13:28:57.442Z,6.10
2018-12-13T13:31:24.889Z,5.95
2018-12-13T13:33:52.311Z,8.70
2018-12-13T13:36:19.739Z,7.53
2018-12-13T13:38:47.171Z,10.40
2018-12-13T13:41:14.614Z,7.65
2018-12-13T13:43:42.062Z,6.65
2018-12-13T13:46:09.480Z,7.70
2018-12-13T13:48:36.903Z,7.12
2018-12-13T13:51:04.364Z,6.37
2018-12-13T13:53:31.783Z,5.45
2018-12-13T13:55:59.202Z,5.30
2018-12-13T13:58:26.627Z,6.37
2018-12-13T14:00:54.066Z,6.25
2018-12-13T14:03:21.626Z,4.83
2018-12-13T14:05:49.085Z,7.08
2018-12-13T14:08:16.525Z,5.25
2018-12-13T14:10:44.046Z,4.37
2018-12-13T14:13:11.465Z,6.92
2018-12-13T14:15:38.903Z,5.25
2018-12-13T14:18:06.373Z,4.78
2018-12-13T14:20:33.804Z,5.80
2018-12-13T14:23:01.458Z,4.30
2018-12-13T14:25:28.898Z,4.42
2018-12-13T14:27:56.378Z,4.17
2018-12-13T14:30:24.507Z,4.03
2018-12-13T14:32:51.957Z,5.37
2018-12-13T14:35:19.462Z,4.28
2018-12-13T14:37:46.983Z,4.92
2018-12-13T14:40:14.438Z,12.50
2018-12-13T14:42:41.893Z,5.22
2018-12-13T14:45:09.438Z,6.58
2018-12-13T14:47:36.861Z,4.90
2018-12-13T14:50:06.127Z,4.65
2018-12-13T14:52:33.614Z,7.53
2018-12-13T14:55:01.054Z,4.95
2018-12-13T14:57:28.499Z,4.30
2018-12-13T14:59:55.938Z,4.50
2018-12-13T15:02:23.381Z,7.37
2018-12-13T15:04:51.146Z,5.35
2018-12-13T15:07:18.592Z,4.35
2018-12-13T15:09:50.804Z,5.72
2018-12-13T15:12:15.423Z,5.90
2018-12-13T15:14:43.150Z,4.60
2018-12-13T15:17:10.582Z,6.03
2018-12-13T15:19:38.013Z,5.33
2018-12-13T15:22:05.446Z,5.62
2018-12-13T15:24:32.890Z,6.35
2018-12-13T15:27:00.434Z,7.55
2018-12-13T15:29:27.854Z,5.65
2018-12-13T15:31:59.347Z,5.95
2018-12-13T15:34:24.715Z,7.70
2018-12-13T15:36:52.155Z,9.18
2018-12-13T15:39:19.574Z,6.80
2018-12-13T15:41:46.989Z,8.03
2018-12-13T15:44:14.422Z,7.55
2018-12-13T15:46:42.642Z,7.80
2018-12-13T15:49:10.066Z,9.50
2018-12-13T15:51:37.496Z,7.85
2018-12-13T15:54:04.967Z,12.20
2018-12-13T15:56:32.381Z,10.03
2018-12-13T15:58:59.900Z,9.50
2018-12-13T16:01:27.420Z,9.00
2018-12-13T16:03:54.900Z,8.75
2018-12-13T16:06:22.398Z,8.70
2018-12-13T16:08:49.826Z,7.47
2018-12-13T16:11:17.351Z,7.53
2018-12-13T16:13:44.770Z,7.00
2018-12-13T16:16:12.246Z,8.60
2018-12-13T16:18:39.670Z,7.67
2018-12-13T16:21:07.094Z,7.50
2018-12-13T16:23:34.538Z,5.97
2018-12-13T16:26:01.957Z,6.75
2018-12-13T16:28:29.454Z,7.47
2018-12-13T16:30:56.942Z,7.10
2018-12-13T16:33:24.390Z,8.00
2018-12-13T16:35:51.809Z,6.90
2018-12-13T16:38:19.410Z,7.90
2018-12-13T16:40:46.849Z,5.17
2018-12-13T16:43:14.739Z,8.10
2018-12-13T16:45:42.178Z,6.85
2018-12-13T16:48:09.953Z,10.10
2018-12-13T16:50:37.484Z,7.28
2018-12-13T16:53:05.441Z,9.15
2018-12-13T16:55:32.909Z,9.98
2018-12-13T16:58:00.329Z,8.93
2018-12-13T17:00:27.794Z,11.93
2018-12-13T17:02:55.216Z,12.53
2018-12-13T17:05:22.669Z,11.28
2018-12-13T17:07:50.100Z,12.68
2018-12-13T17:10:17.530Z,12.33
2018-12-13T17:12:44.965Z,14.98
2018-12-13T17:15:12.398Z,19.57
2018-12-13T17:17:39.981Z,11.20
2018-12-13T17:20:07.432Z,10.25
2018-12-13T17:22:34.863Z,10.70
2018-12-13T17:25:02.311Z,11.75
2018-12-13T17:27:29.750Z,9.38
2018-12-13T17:29:57.170Z,12.55
2018-12-13T17:32:24.594Z,23.18
2018-12-13T17:34:52.067Z,15.65
2018-12-13T17:37:19.481Z,8.80
2018-12-13T17:39:46.980Z,10.63
2018-12-13T17:42:14.446Z,9.43
2018-12-13T17:44:41.858Z,8.98
2018-12-13T17:47:09.286Z,7.85
2018-12-13T17:49:36.706Z,10.68
2018-12-13T17:52:04.186Z,11.40
2018-12-13T17:54:31.630Z,11.43
2018-12-13T17:56:59.063Z,11.88
2018-12-13T17:59:26.485Z,11.70
2018-12-13T18:01:54.006Z,8.88
2018-12-13T18:04:21.432Z,9.60
2018-12-13T18:09:22.765Z,10.43
2018-12-13T18:11:50.239Z,10.60
2018-12-13T18:14:17.665Z,11.38
2018-12-13T18:16:45.118Z,10.60
2018-12-13T18:19:12.533Z,8.95
2018-12-13T18:21:39.994Z,11.22
2018-12-13T18:24:07.438Z,11.08
2018-12-13T18:26:34.879Z,13.53
2018-12-13T18:29:02.362Z,12.33
2018-12-13T18:31:29.806Z,15.05
2018-12-13T18:33:57.289Z,13.18
2018-12-13T18:36:24.713Z,12.25
2018-12-13T18:38:52.161Z,15.58
2018-12-13T18:41:19.631Z,14.28
2018-12-13T18:43:47.072Z,14.38
2018-12-13T18:46:14.501Z,21.05
2018-12-13T18:48:42.002Z,21.52
2018-12-13T18:51:09.450Z,23.47
2018-12-13T18:53:36.954Z,20.62
2018-12-13T18:56:04.420Z,16.12
2018-12-13T18:58:31.854Z,18.35
2018-12-13T19:00:59.301Z,18.70
2018-12-13T19:03:26.865Z,23.73
2018-12-13T19:05:54.310Z,16.80
2018-12-13T19:08:22.086Z,14.58
2018-12-13T19:10:49.526Z,13.18
2018-12-13T19:13:17.019Z,14.47
2018-12-13T19:15:44.475Z,14.05
2018-12-13T19:18:11.895Z,14.47
2018-12-13T19:20:39.334Z,16.82
2018-12-13T19:23:06.836Z,15.90
2018-12-13T19:25:34.427Z,12.85
2018-12-13T19:28:01.843Z,12.98
2018-12-13T19:30:29.322Z,17.87
2018-12-13T19:32:56.743Z,12.00
2018-12-13T19:35:24.178Z,15.10
2018-12-13T19:37:51.701Z,12.90
2018-12-13T19:40:19.191Z,13.90
2018-12-13T19:42:46.610Z,15.95
2018-12-13T19:45:14.110Z,16.45
2018-12-13T19:47:41.503Z,14.07
2018-12-13T19:50:09.717Z,13.20
2018-12-13T19:52:37.358Z,15.45
2018-12-13T19:55:06.563Z,16.95
2018-12-13T19:57:34.014Z,16.30
2018-12-13T20:00:01.483Z,14.78
2018-12-13T20:02:28.979Z,13.85
2018-12-13T20:04:56.410Z,19.05
2018-12-13T20:07:24.119Z,18.75
2018-12-13T20:09:51.613Z,20.32
2018-12-13T20:12:19.084Z,25.40
2018-12-13T20:17:25.666Z,23.18
2018-12-13T20:19:53.158Z,22.67
2018-12-13T20:22:20.590Z,20.52
2018-12-13T20:24:48.049Z,26.85
2018-12-13T20:27:15.513Z,26.52
2018-12-13T20:29:43.203Z,29.23
2018-12-13T20:32:10.778Z,23.85
2018-12-13T20:34:38.234Z,21.02
2018-12-13T20:37:05.714Z,18.30
2018-12-13T20:39:33.149Z,22.93
2018-12-13T20:42:01.481Z,22.82
2018-12-13T20:44:29.663Z,25.80
2018-12-13T20:46:57.108Z,26.70
2018-12-13T20:49:24.564Z,21.93
2018-12-13T20:51:52.006Z,23.42
2018-12-13T20:54:19.457Z,22.17
2018-12-13T20:56:46.907Z,21.02
2018-12-13T20:59:14.334Z,23.25
2018-12-13T21:01:41.826Z,24.50
2018-12-13T21:04:09.255Z,20.10
2018-12-13T21:06:36.698Z,18.45
2018-12-13T21:09:05.563Z,22.45
2018-12-13T21:11:33.027Z,21.33
2018-12-13T21:14:00.488Z,21.45
2018-12-13T21:16:28.030Z,21.95
2018-12-13T21:18:55.485Z,21.57
2018-12-13T21:21:22.968Z,21.15
2018-12-13T21:23:50.402Z,21.90
2018-12-13T21:26:17.872Z,19.52
2018-12-13T21:28:45.335Z,19.62
2018-12-13T21:31:12.881Z,21.73
2018-12-13T21:33:40.309Z,13.38
2018-12-13T21:36:07.750Z,13.95
2018-12-13T21:38:35.182Z,15.23
2018-12-13T21:41:02.627Z,13.85
2018-12-13T21:43:30.069Z,10.90
2018-12-13T21:45:57.522Z,13.22
2018-12-13T21:48:24.964Z,16.50
2018-12-13T21:50:52.406Z,16.70
2018-12-13T21:53:19.986Z,12.28
2018-12-13T21:55:47.446Z,12.50
2018-12-13T21:58:14.910Z,13.98
2018-12-13T22:00:42.364Z,12.75
2018-12-13T22:03:09.802Z,14.95
2018-12-13T22:05:37.649Z,11.75
2018-12-13T22:08:05.160Z,13.25
2018-12-13T22:10:32.594Z,12.03
2018-12-13T22:13:00.068Z,14.58
2018-12-13T22:15:28.459Z,14.33
2018-12-13T22:17:55.889Z,13.95
2018-12-13T22:20:23.346Z,13.98
2018-12-13T22:22:50.814Z,13.95
2018-12-13T22:25:18.294Z,13.90
2018-12-13T22:27:45.755Z,14.63
2018-12-13T22:30:13.224Z,11.30
2018-12-13T22:32:40.906Z,13.75
2018-12-13T22:35:08.333Z,15.28
2018-12-13T22:37:35.874Z,14.07
2018-12-13T22:40:03.650Z,14.35
2018-12-13T22:42:31.123Z,14.70
2018-12-13T22:44:58.586Z,13.40
2018-12-13T22:47:26.277Z,15.32
2018-12-13T22:49:53.817Z,15.08
2018-12-13T22:52:21.287Z,11.35
2018-12-13T22:54:48.754Z,11.65
2018-12-13T22:57:16.269Z,11.38
2018-12-13T22:59:43.741Z,12.73
2018-12-13T23:02:11.195Z,13.88
2018-12-13T23:04:38.690Z,11.80
2018-12-13T23:07:06.144Z,13.25
2018-12-13T23:09:33.585Z,17.05
2018-12-13T23:12:01.033Z,12.33
2018-12-13T23:14:28.474Z,17.20
2018-12-13T23:16:55.906Z,15.55
2018-12-13T23:19:23.354Z,14.47
2018-12-13T23:21:50.822Z,14.60
2018-12-13T23:24:18.277Z,12.68
2018-12-13T23:26:45.719Z,17.52
2018-12-13T23:29:13.158Z,14.98
2018-12-13T23:31:40.586Z,10.85
2018-12-13T23:34:08.037Z,14.20
2018-12-13T23:36:35.496Z,14.87
2018-12-13T23:39:03.994Z,17.07
2018-12-13T23:41:31.505Z,15.25
2018-12-13T23:43:58.936Z,17.23
2018-12-13T23:46:26.419Z,17.65
2018-12-13T23:48:55.586Z,16.48
2018-12-13T23:51:23.054Z,18.45
2018-12-13T23:53:50.486Z,16.50
2018-12-13T23:56:17.955Z,16.75
2018-12-13T23:58:45.513Z,16.73
